METAR AND TAF INFORMATION
METAR FOR LPMA
ADDS - METARS form results

(2138 UTC 26 September 2017)
Data provider http://aviationweather.gov/adds/metars/
 
METAR text: LPMA 262130Z 03005KT 9999 SCT013 23/20 Q1020
Conditions at: LPMA (FUNCHAL/MADEIRA , PT) observed 2130 UTC 26 September 2017
Temperature: 23.0°C (73°F)
Dewpoint: 20.0°C (68°F) [RH = 83%]
Pressure (altimeter): 30.12 inches Hg (1020.0 mb)
Winds: from the NNE (30 degrees) at 6 MPH (5 knots; 2.6 m/s)
Visibility: 6 or more miles (10+ km)
Ceiling: at least 12,000 feet AGL
Clouds: scattered clouds at 1300 feet AGL
Weather: no significant weather observed at this time

METAR text: LPMA 262100Z 04006KT 9999 SCT013 SCT030 22/19 Q1020
Conditions at: LPMA (FUNCHAL/MADEIRA , PT) observed 2100 UTC 26 September 2017
Temperature: 22.0°C (72°F)
Dewpoint: 19.0°C (66°F) [RH = 83%]
Pressure (altimeter): 30.12 inches Hg (1020.0 mb)
Winds: from the NE (40 degrees) at 7 MPH (6 knots; 3.1 m/s)
Visibility: 6 or more miles (10+ km)
Ceiling: at least 12,000 feet AGL
Clouds: scattered clouds at 1300 feet AGL
scattered clouds at 3000 feet AGL
Weather: no significant weather observed at this time

Forecast for: LPMA (FUNCHAL/MADEIRA , PT)
Text: TAF LPMA 261700Z 2618/2718 VRB05KT 9999 SCT015
Forecast period: 1800 UTC 26 September 2017 to 1000 UTC 27 September 2017
Forecast type: FROM: standard forecast or significant change
Winds: variable direction winds at 6 MPH (5 knots; 2.6 m/s)
Visibility: 6 or more miles (10+ km)
Clouds: scattered clouds at 1500 feet AGL
Weather: no significant weather forecast for this period
Text: BECMG 2710/2712 20008KT
Forecast period: 1000 to 1800 UTC 27 September 2017
Forecast type: BECOMING: Conditions expected to become as follows by 1200 UTC 27 September 2017
Winds: from the SSW (200 degrees) at 9 MPH (8 knots; 4.2 m/s)
Visibility: 6 or more miles (10+ km)
Clouds: scattered clouds at 1500 feet AGL
Weather: no significant weather forecast for this period

 AIRPORT MAP

 RUNWAY INFORMATION
Runway 05 Runway length 9110 ft Runway width 148 ft
Runway elevation 147 ft Runway displaced threshold 480 ft Runway heading 45
Runway 23 Runway length 9110 ft Runway width 148 ft
Runway elevation 192 ft Runway displaced threshold 490 ft Runway heading 225

 AIRPORT FREQUENCIES
Type APP Name APP Frequency 119.2 MHZ
Type TWR Name TWR Frequency 118.35 MHZ

 AIRPORT NEAR NAVIGATION AIDS
Type VOR-DME Name Madeira Frequency 112200 KHZ
Type NDB Name Madeira Frequency 318 KHZ



Powered by Virtual Airlines Manager [v2.6.2]

SI TIENES ALGUNA DUDA SOBRE LA WEB CONTACTA: webmaster@taca-virtual.org